sensor_id;sensor_type;location;lat;lon;timestamp;temperature;humidity
3528;DHT22;1778;47.966;7.854;2023-03-31T00:00:26;11.60;99.90
3528;DHT22;1778;47.966;7.854;2023-03-31T00:01:28;11.60;99.90
3528;DHT22;1778;47.966;7.854;2023-03-31T00:02:30;11.60;99.90
3528;DHT22;1778;47.966;7.854;2023-03-31T00:03:33;11.50;99.90
3528;DHT22;1778;47.966;7.854;2023-03-31T00:04:40;11.50;99.90
3528;DHT22;1778;47.966;7.854;2023-03-31T00:05:58;11.50;99.90
3528;DHT22;1778;47.966;7.854;2023-03-31T00:07:00;11.60;99.90
3528;DHT22;1778;47.966;7.854;2023-03-31T00:08:02;11.60;99.90
3528;DHT22;1778;47.966;7.854;2023-03-31T00:09:09;11.60;99.90
3528;DHT22;1778;47.966;7.854;2023-03-31T00:10:12;11.60;99.90
3528;DHT22;1778;47.966;7.854;2023-03-31T00:11:20;11.60;99.90
3528;DHT22;1778;47.966;7.854;2023-03-31T00:12:22;11.60;99.90
3528;DHT22;1778;47.966;7.854;2023-03-31T00:13:24;11.60;99.90
3528;DHT22;1778;47.966;7.854;2023-03-31T00:14:25;11.60;99.90
3528;DHT22;1778;47.966;7.854;2023-03-31T00:15:28;11.70;99.90
3528;DHT22;1778;47.966;7.854;2023-03-31T00:16:29;11.70;99.90
3528;DHT22;1778;47.966;7.854;2023-03-31T00:17:31;11.60;99.90
3528;DHT22;1778;47.966;7.854;2023-03-31T00:18:37;11.60;99.90
3528;DHT22;1778;47.966;7.854;2023-03-31T00:19:41;11.60;99.90
3528;DHT22;1778;47.966;7.854;2023-03-31T00:20:42;11.60;99.90
3528;DHT22;1778;47.966;7.854;2023-03-31T00:21:48;11.60;99.90
3528;DHT22;1778;47.966;7.854;2023-03-31T00:22:51;11.60;99.90
3528;DHT22;1778;47.966;7.854;2023-03-31T00:23:56;11.60;99.90
3528;DHT22;1778;47.966;7.854;2023-03-31T00:24:58;11.60;99.90
3528;DHT22;1778;47.966;7.854;2023-03-31T00:26:01;11.60;99.90
3528;DHT22;1778;47.966;7.854;2023-03-31T00:27:03;11.60;99.90
3528;DHT22;1778;47.966;7.854;2023-03-31T00:28:06;11.60;99.90
3528;DHT22;1778;47.966;7.854;2023-03-31T00:29:08;11.60;99.90
3528;DHT22;1778;47.966;7.854;2023-03-31T00:30:12;11.60;99.90
3528;DHT22;1778;47.966;7.854;2023-03-31T00:31:14;11.60;99.90
3528;DHT22;1778;47.966;7.854;2023-03-31T00:32:15;11.60;99.90
3528;DHT22;1778;47.966;7.854;2023-03-31T00:33:18;11.70;99.90
3528;DHT22;1778;47.966;7.854;2023-03-31T00:34:19;11.60;99.90
3528;DHT22;1778;47.966;7.854;2023-03-31T00:35:21;11.60;99.90
3528;DHT22;1778;47.966;7.854;2023-03-31T00:36:23;11.60;99.90
3528;DHT22;1778;47.966;7.854;2023-03-31T00:37:31;11.60;99.90
3528;DHT22;1778;47.966;7.854;2023-03-31T00:38:34;11.60;99.90
3528;DHT22;1778;47.966;7.854;2023-03-31T00:39:36;11.60;99.90
3528;DHT22;1778;47.966;7.854;2023-03-31T00:40:44;11.70;99.90
3528;DHT22;1778;47.966;7.854;2023-03-31T00:41:46;11.70;99.90
3528;DHT22;1778;47.966;7.854;2023-03-31T00:42:48;11.70;99.90
3528;DHT22;1778;47.966;7.854;2023-03-31T00:44:22;11.70;99.90
3528;DHT22;1778;47.966;7.854;2023-03-31T00:45:28;11.70;99.90
3528;DHT22;1778;47.966;7.854;2023-03-31T00:47:51;11.90;99.90
3528;DHT22;1778;47.966;7.854;2023-03-31T00:48:54;12.00;99.90
3528;DHT22;1778;47.966;7.854;2023-03-31T00:49:58;12.10;99.90
3528;DHT22;1778;47.966;7.854;2023-03-31T00:51:04;12.10;99.90
3528;DHT22;1778;47.966;7.854;2023-03-31T00:52:09;12.10;99.90
3528;DHT22;1778;47.966;7.854;2023-03-31T00:53:16;12.10;99.90
3528;DHT22;1778;47.966;7.854;2023-03-31T00:54:20;12.10;99.90
3528;DHT22;1778;47.966;7.854;2023-03-31T00:55:33;12.10;99.90
3528;DHT22;1778;47.966;7.854;2023-03-31T00:56:39;12.20;99.90
3528;DHT22;1778;47.966;7.854;2023-03-31T00:57:42;12.30;99.90
3528;DHT22;1778;47.966;7.854;2023-03-31T00:58:47;12.20;99.90
3528;DHT22;1778;47.966;7.854;2023-03-31T00:59:55;12.30;99.90
3528;DHT22;1778;47.966;7.854;2023-03-31T01:01:00;12.30;99.90
3528;DHT22;1778;47.966;7.854;2023-03-31T01:02:03;12.30;99.90
3528;DHT22;1778;47.966;7.854;2023-03-31T01:03:06;12.30;99.90
3528;DHT22;1778;47.966;7.854;2023-03-31T01:04:11;12.30;99.90
3528;DHT22;1778;47.966;7.854;2023-03-31T01:05:14;12.30;99.90
3528;DHT22;1778;47.966;7.854;2023-03-31T01:06:17;12.30;99.90
3528;DHT22;1778;47.966;7.854;2023-03-31T01:07:27;12.20;99.90
3528;DHT22;1778;47.966;7.854;2023-03-31T01:08:31;12.20;99.90
3528;DHT22;1778;47.966;7.854;2023-03-31T01:09:33;12.20;99.90
3528;DHT22;1778;47.966;7.854;2023-03-31T01:10:39;12.10;99.90
3528;DHT22;1778;47.966;7.854;2023-03-31T01:11:43;12.10;99.90
3528;DHT22;1778;47.966;7.854;2023-03-31T01:12:50;12.00;99.90
3528;DHT22;1778;47.966;7.854;2023-03-31T01:13:53;12.00;99.90
3528;DHT22;1778;47.966;7.854;2023-03-31T01:14:56;12.10;99.90
3528;DHT22;1778;47.966;7.854;2023-03-31T01:15:59;12.20;99.90
3528;DHT22;1778;47.966;7.854;2023-03-31T01:17:01;12.20;99.90
3528;DHT22;1778;47.966;7.854;2023-03-31T01:18:05;12.10;99.90
3528;DHT22;1778;47.966;7.854;2023-03-31T01:19:16;12.10;99.90
3528;DHT22;1778;47.966;7.854;2023-03-31T01:25:30;12.00;99.90
3528;DHT22;1778;47.966;7.854;2023-03-31T01:26:36;11.90;99.90
3528;DHT22;1778;47.966;7.854;2023-03-31T01:45:56;11.50;99.90
3528;DHT22;1778;47.966;7.854;2023-03-31T01:48:12;11.60;99.90
3528;DHT22;1778;47.966;7.854;2023-03-31T01:49:30;11.60;99.90
3528;DHT22;1778;47.966;7.854;2023-03-31T01:50:57;11.50;99.90
3528;DHT22;1778;47.966;7.854;2023-03-31T01:52:19;11.50;99.90
3528;DHT22;1778;47.966;7.854;2023-03-31T01:53:41;11.40;99.90
3528;DHT22;1778;47.966;7.854;2023-03-31T01:57:27;11.40;99.90
3528;DHT22;1778;47.966;7.854;2023-03-31T01:58:43;11.40;99.90
3528;DHT22;1778;47.966;7.854;2023-03-31T02:00:13;11.40;99.90
3528;DHT22;1778;47.966;7.854;2023-03-31T02:01:23;11.40;99.90
3528;DHT22;1778;47.966;7.854;2023-03-31T02:02:31;11.40;99.90
3528;DHT22;1778;47.966;7.854;2023-03-31T02:03:36;11.40;99.90
3528;DHT22;1778;47.966;7.854;2023-03-31T02:04:44;11.40;99.90
3528;DHT22;1778;47.966;7.854;2023-03-31T02:05:55;11.40;99.90
3528;DHT22;1778;47.966;7.854;2023-03-31T02:07:11;11.40;99.90
3528;DHT22;1778;47.966;7.854;2023-03-31T02:08:20;11.40;99.90
3528;DHT22;1778;47.966;7.854;2023-03-31T02:09:36;11.30;99.90
3528;DHT22;1778;47.966;7.854;2023-03-31T02:10:40;11.40;99.90
3528;DHT22;1778;47.966;7.854;2023-03-31T02:11:43;11.40;99.90
3528;DHT22;1778;47.966;7.854;2023-03-31T02:12:47;11.30;99.90
3528;DHT22;1778;47.966;7.854;2023-03-31T02:13:52;11.30;99.90
3528;DHT22;1778;47.966;7.854;2023-03-31T02:14:57;11.20;99.90
3528;DHT22;1778;47.966;7.854;2023-03-31T02:16:05;11.20;99.90
3528;DHT22;1778;47.966;7.854;2023-03-31T02:17:14;11.20;99.90
3528;DHT22;1778;47.966;7.854;2023-03-31T02:18:21;11.20;99.90
3528;DHT22;1778;47.966;7.854;2023-03-31T02:19:30;11.10;99.90
3528;DHT22;1778;47.966;7.854;2023-03-31T02:20:33;11.10;99.90
3528;DHT22;1778;47.966;7.854;2023-03-31T02:21:37;11.10;99.90
3528;DHT22;1778;47.966;7.854;2023-03-31T02:22:42;11.20;99.90
3528;DHT22;1778;47.966;7.854;2023-03-31T02:23:49;11.10;99.90
3528;DHT22;1778;47.966;7.854;2023-03-31T02:24:52;11.20;99.90
3528;DHT22;1778;47.966;7.854;2023-03-31T02:26:05;11.20;99.90
3528;DHT22;1778;47.966;7.854;2023-03-31T02:27:18;11.20;99.90
3528;DHT22;1778;47.966;7.854;2023-03-31T02:28:24;11.10;99.90
3528;DHT22;1778;47.966;7.854;2023-03-31T02:29:27;11.10;99.90
3528;DHT22;1778;47.966;7.854;2023-03-31T02:30:40;11.10;99.90
3528;DHT22;1778;47.966;7.854;2023-03-31T02:31:53;11.10;99.90
3528;DHT22;1778;47.966;7.854;2023-03-31T02:32:58;11.10;99.90
3528;DHT22;1778;47.966;7.854;2023-03-31T02:34:00;11.10;99.90
3528;DHT22;1778;47.966;7.854;2023-03-31T02:35:07;11.10;99.90
3528;DHT22;1778;47.966;7.854;2023-03-31T02:36:09;11.10;99.90
3528;DHT22;1778;47.966;7.854;2023-03-31T02:37:12;11.00;99.90
3528;DHT22;1778;47.966;7.854;2023-03-31T02:38:18;11.00;99.90
3528;DHT22;1778;47.966;7.854;2023-03-31T02:39:29;11.00;99.90
3528;DHT22;1778;47.966;7.854;2023-03-31T02:40:32;11.10;99.90
3528;DHT22;1778;47.966;7.854;2023-03-31T02:41:34;11.10;99.90
3528;DHT22;1778;47.966;7.854;2023-03-31T02:42:38;11.00;99.90
3528;DHT22;1778;47.966;7.854;2023-03-31T02:43:39;11.00;99.90
3528;DHT22;1778;47.966;7.854;2023-03-31T02:44:41;11.10;99.90
3528;DHT22;1778;47.966;7.854;2023-03-31T02:45:45;11.00;99.90
3528;DHT22;1778;47.966;7.854;2023-03-31T02:46:47;11.00;99.90
3528;DHT22;1778;47.966;7.854;2023-03-31T02:47:50;11.00;99.90
3528;DHT22;1778;47.966;7.854;2023-03-31T02:48:56;11.10;99.90
3528;DHT22;1778;47.966;7.854;2023-03-31T02:50:00;11.00;99.90
3528;DHT22;1778;47.966;7.854;2023-03-31T02:53:07;11.10;99.90
3528;DHT22;1778;47.966;7.854;2023-03-31T02:56:07;11.10;99.90
3528;DHT22;1778;47.966;7.854;2023-03-31T03:06:00;11.00;99.90
3528;DHT22;1778;47.966;7.854;2023-03-31T03:11:47;11.10;99.90
3528;DHT22;1778;47.966;7.854;2023-03-31T03:13:08;11.10;99.90
3528;DHT22;1778;47.966;7.854;2023-03-31T03:14:58;11.10;99.90
3528;DHT22;1778;47.966;7.854;2023-03-31T03:16:24;11.10;99.90
3528;DHT22;1778;47.966;7.854;2023-03-31T03:17:46;11.10;99.90
3528;DHT22;1778;47.966;7.854;2023-03-31T03:19:00;11.10;99.90
3528;DHT22;1778;47.966;7.854;2023-03-31T03:20:05;11.10;99.90
3528;DHT22;1778;47.966;7.854;2023-03-31T03:21:11;11.10;99.90
3528;DHT22;1778;47.966;7.854;2023-03-31T03:22:12;11.10;99.90
3528;DHT22;1778;47.966;7.854;2023-03-31T03:23:15;11.20;99.90
3528;DHT22;1778;47.966;7.854;2023-03-31T03:24:17;11.10;99.90
3528;DHT22;1778;47.966;7.854;2023-03-31T03:25:19;11.20;99.90
3528;DHT22;1778;47.966;7.854;2023-03-31T03:26:21;11.20;99.90
3528;DHT22;1778;47.966;7.854;2023-03-31T03:27:28;11.20;99.90
3528;DHT22;1778;47.966;7.854;2023-03-31T03:28:30;11.20;99.90
3528;DHT22;1778;47.966;7.854;2023-03-31T03:29:31;11.30;99.90
3528;DHT22;1778;47.966;7.854;2023-03-31T03:30:33;11.20;99.90
3528;DHT22;1778;47.966;7.854;2023-03-31T03:31:35;11.30;99.90
3528;DHT22;1778;47.966;7.854;2023-03-31T03:32:37;11.30;99.90
3528;DHT22;1778;47.966;7.854;2023-03-31T03:33:39;11.30;99.90
3528;DHT22;1778;47.966;7.854;2023-03-31T03:34:41;11.30;99.90
3528;DHT22;1778;47.966;7.854;2023-03-31T03:35:42;11.30;99.90
3528;DHT22;1778;47.966;7.854;2023-03-31T03:36:44;11.40;99.90
3528;DHT22;1778;47.966;7.854;2023-03-31T03:37:46;11.40;99.90
3528;DHT22;1778;47.966;7.854;2023-03-31T03:38:48;11.40;99.90
3528;DHT22;1778;47.966;7.854;2023-03-31T03:39:49;11.40;99.90
3528;DHT22;1778;47.966;7.854;2023-03-31T03:40:53;11.40;99.90
3528;DHT22;1778;47.966;7.854;2023-03-31T03:41:55;11.40;99.90
3528;DHT22;1778;47.966;7.854;2023-03-31T03:42:56;11.40;99.90
3528;DHT22;1778;47.966;7.854;2023-03-31T03:44:01;11.40;99.90
3528;DHT22;1778;47.966;7.854;2023-03-31T03:45:03;11.40;99.90
3528;DHT22;1778;47.966;7.854;2023-03-31T03:46:05;11.50;99.90
3528;DHT22;1778;47.966;7.854;2023-03-31T03:47:08;11.40;99.90
3528;DHT22;1778;47.966;7.854;2023-03-31T03:48:10;11.40;99.90
3528;DHT22;1778;47.966;7.854;2023-03-31T03:49:12;11.40;99.90
3528;DHT22;1778;47.966;7.854;2023-03-31T03:50:13;11.40;99.90
3528;DHT22;1778;47.966;7.854;2023-03-31T03:51:16;11.40;99.90
3528;DHT22;1778;47.966;7.854;2023-03-31T03:52:18;11.40;99.90
3528;DHT22;1778;47.966;7.854;2023-03-31T03:53:19;11.50;99.90
3528;DHT22;1778;47.966;7.854;2023-03-31T03:54:21;11.50;99.90
3528;DHT22;1778;47.966;7.854;2023-03-31T03:55:22;11.40;99.90
3528;DHT22;1778;47.966;7.854;2023-03-31T03:56:24;11.40;99.90
3528;DHT22;1778;47.966;7.854;2023-03-31T03:57:26;11.50;99.90
3528;DHT22;1778;47.966;7.854;2023-03-31T03:58:28;11.50;99.90
3528;DHT22;1778;47.966;7.854;2023-03-31T03:59:29;11.50;99.90
3528;DHT22;1778;47.966;7.854;2023-03-31T04:00:31;11.50;99.90
3528;DHT22;1778;47.966;7.854;2023-03-31T04:01:32;11.50;99.90
3528;DHT22;1778;47.966;7.854;2023-03-31T04:02:34;11.50;99.90
3528;DHT22;1778;47.966;7.854;2023-03-31T04:03:36;11.60;99.90
3528;DHT22;1778;47.966;7.854;2023-03-31T04:04:38;11.60;99.90
3528;DHT22;1778;47.966;7.854;2023-03-31T04:05:39;11.60;99.90
3528;DHT22;1778;47.966;7.854;2023-03-31T04:06:41;11.60;99.90
3528;DHT22;1778;47.966;7.854;2023-03-31T04:07:42;11.60;99.90
3528;DHT22;1778;47.966;7.854;2023-03-31T04:08:44;11.60;99.90
3528;DHT22;1778;47.966;7.854;2023-03-31T04:09:45;11.60;99.90
3528;DHT22;1778;47.966;7.854;2023-03-31T04:10:48;11.70;99.90
3528;DHT22;1778;47.966;7.854;2023-03-31T04:11:49;11.60;99.90
3528;DHT22;1778;47.966;7.854;2023-03-31T04:12:51;11.70;99.90
3528;DHT22;1778;47.966;7.854;2023-03-31T04:13:52;11.70;99.90
3528;DHT22;1778;47.966;7.854;2023-03-31T04:14:54;11.70;99.90
3528;DHT22;1778;47.966;7.854;2023-03-31T04:15:55;11.70;99.90
3528;DHT22;1778;47.966;7.854;2023-03-31T04:16:57;11.70;99.90
3528;DHT22;1778;47.966;7.854;2023-03-31T04:17:58;11.60;99.90
3528;DHT22;1778;47.966;7.854;2023-03-31T04:19:00;11.70;99.90
3528;DHT22;1778;47.966;7.854;2023-03-31T04:20:08;11.70;99.90
3528;DHT22;1778;47.966;7.854;2023-03-31T04:21:11;11.70;99.90
3528;DHT22;1778;47.966;7.854;2023-03-31T04:22:15;11.70;99.90
3528;DHT22;1778;47.966;7.854;2023-03-31T04:23:21;11.60;99.90
3528;DHT22;1778;47.966;7.854;2023-03-31T04:24:26;11.60;99.90
3528;DHT22;1778;47.966;7.854;2023-03-31T04:25:33;11.60;99.90
3528;DHT22;1778;47.966;7.854;2023-03-31T04:26:38;11.70;99.90
3528;DHT22;1778;47.966;7.854;2023-03-31T04:27:45;11.60;99.90
3528;DHT22;1778;47.966;7.854;2023-03-31T04:28:51;11.60;99.90
3528;DHT22;1778;47.966;7.854;2023-03-31T04:29:53;11.70;99.90
3528;DHT22;1778;47.966;7.854;2023-03-31T04:30:57;11.80;99.90
3528;DHT22;1778;47.966;7.854;2023-03-31T04:31:59;12.00;99.90
3528;DHT22;1778;47.966;7.854;2023-03-31T04:33:02;12.10;99.90
3528;DHT22;1778;47.966;7.854;2023-03-31T04:34:04;12.30;99.90
3528;DHT22;1778;47.966;7.854;2023-03-31T04:35:07;12.50;99.90
3528;DHT22;1778;47.966;7.854;2023-03-31T04:36:09;12.90;99.90
3528;DHT22;1778;47.966;7.854;2023-03-31T04:37:20;13.00;99.90
3528;DHT22;1778;47.966;7.854;2023-03-31T04:38:23;13.00;99.90
3528;DHT22;1778;47.966;7.854;2023-03-31T04:39:27;13.10;99.90
3528;DHT22;1778;47.966;7.854;2023-03-31T04:40:31;13.20;99.90
3528;DHT22;1778;47.966;7.854;2023-03-31T04:41:32;13.20;99.90
3528;DHT22;1778;47.966;7.854;2023-03-31T04:42:34;13.20;99.90
3528;DHT22;1778;47.966;7.854;2023-03-31T04:43:36;13.30;99.90
3528;DHT22;1778;47.966;7.854;2023-03-31T04:44:37;13.30;99.90
3528;DHT22;1778;47.966;7.854;2023-03-31T04:45:39;13.30;99.90
3528;DHT22;1778;47.966;7.854;2023-03-31T04:46:41;13.30;99.90
3528;DHT22;1778;47.966;7.854;2023-03-31T04:47:43;13.40;99.90
3528;DHT22;1778;47.966;7.854;2023-03-31T04:48:44;13.40;99.90
3528;DHT22;1778;47.966;7.854;2023-03-31T04:49:46;13.40;99.90
3528;DHT22;1778;47.966;7.854;2023-03-31T04:50:47;13.40;99.90
3528;DHT22;1778;47.966;7.854;2023-03-31T04:51:49;13.40;99.90
3528;DHT22;1778;47.966;7.854;2023-03-31T04:52:51;13.40;99.90
3528;DHT22;1778;47.966;7.854;2023-03-31T04:53:52;13.40;99.90
3528;DHT22;1778;47.966;7.854;2023-03-31T04:54:54;13.40;99.90
3528;DHT22;1778;47.966;7.854;2023-03-31T04:55:56;13.30;99.90
3528;DHT22;1778;47.966;7.854;2023-03-31T04:56:57;13.30;99.90
3528;DHT22;1778;47.966;7.854;2023-03-31T04:58:00;13.20;99.90
3528;DHT22;1778;47.966;7.854;2023-03-31T04:59:02;13.20;99.90
3528;DHT22;1778;47.966;7.854;2023-03-31T05:00:07;13.10;99.90
3528;DHT22;1778;47.966;7.854;2023-03-31T05:01:11;13.10;99.90
3528;DHT22;1778;47.966;7.854;2023-03-31T05:02:18;13.00;99.90
3528;DHT22;1778;47.966;7.854;2023-03-31T05:03:26;12.90;99.90
3528;DHT22;1778;47.966;7.854;2023-03-31T05:04:27;12.80;99.90
3528;DHT22;1778;47.966;7.854;2023-03-31T05:05:29;12.80;99.90
3528;DHT22;1778;47.966;7.854;2023-03-31T05:06:31;12.70;99.90
3528;DHT22;1778;47.966;7.854;2023-03-31T05:07:33;12.60;99.90
3528;DHT22;1778;47.966;7.854;2023-03-31T05:08:35;12.60;99.90
3528;DHT22;1778;47.966;7.854;2023-03-31T05:09:37;12.60;99.90
3528;DHT22;1778;47.966;7.854;2023-03-31T05:10:39;12.50;99.90
3528;DHT22;1778;47.966;7.854;2023-03-31T05:11:41;12.50;99.90
3528;DHT22;1778;47.966;7.854;2023-03-31T05:12:43;12.40;99.90
3528;DHT22;1778;47.966;7.854;2023-03-31T05:13:44;12.40;99.90
3528;DHT22;1778;47.966;7.854;2023-03-31T05:14:47;12.50;99.90
3528;DHT22;1778;47.966;7.854;2023-03-31T05:15:48;12.40;99.90
3528;DHT22;1778;47.966;7.854;2023-03-31T05:16:52;12.40;99.90
3528;DHT22;1778;47.966;7.854;2023-03-31T05:17:58;12.30;99.90
3528;DHT22;1778;47.966;7.854;2023-03-31T05:19:00;12.30;99.90
3528;DHT22;1778;47.966;7.854;2023-03-31T05:20:01;12.20;99.90
3528;DHT22;1778;47.966;7.854;2023-03-31T05:21:12;12.20;99.90
3528;DHT22;1778;47.966;7.854;2023-03-31T05:22:14;12.10;99.90
3528;DHT22;1778;47.966;7.854;2023-03-31T05:23:20;12.00;99.90
3528;DHT22;1778;47.966;7.854;2023-03-31T05:24:22;12.00;99.90
3528;DHT22;1778;47.966;7.854;2023-03-31T05:25:23;12.00;99.90
3528;DHT22;1778;47.966;7.854;2023-03-31T05:26:25;12.00;99.90
3528;DHT22;1778;47.966;7.854;2023-03-31T05:27:27;11.90;99.90
3528;DHT22;1778;47.966;7.854;2023-03-31T05:28:28;11.90;99.90
3528;DHT22;1778;47.966;7.854;2023-03-31T05:29:32;12.00;99.90
3528;DHT22;1778;47.966;7.854;2023-03-31T05:30:34;11.90;99.90
3528;DHT22;1778;47.966;7.854;2023-03-31T05:31:35;11.90;99.90
3528;DHT22;1778;47.966;7.854;2023-03-31T05:32:37;11.90;99.90
3528;DHT22;1778;47.966;7.854;2023-03-31T05:33:39;11.90;99.90
3528;DHT22;1778;47.966;7.854;2023-03-31T05:34:42;11.80;99.90
3528;DHT22;1778;47.966;7.854;2023-03-31T05:35:44;11.90;99.90
3528;DHT22;1778;47.966;7.854;2023-03-31T05:36:46;11.80;99.90
3528;DHT22;1778;47.966;7.854;2023-03-31T05:37:53;11.90;99.90
3528;DHT22;1778;47.966;7.854;2023-03-31T05:38:55;11.90;99.90
3528;DHT22;1778;47.966;7.854;2023-03-31T05:39:56;11.80;99.90
3528;DHT22;1778;47.966;7.854;2023-03-31T05:40:59;11.80;99.90
3528;DHT22;1778;47.966;7.854;2023-03-31T05:42:00;11.80;99.90
3528;DHT22;1778;47.966;7.854;2023-03-31T05:43:03;11.70;99.90
3528;DHT22;1778;47.966;7.854;2023-03-31T05:44:05;11.70;99.90
3528;DHT22;1778;47.966;7.854;2023-03-31T05:45:07;11.60;99.90
3528;DHT22;1778;47.966;7.854;2023-03-31T05:46:09;11.60;99.90
3528;DHT22;1778;47.966;7.854;2023-03-31T05:47:12;11.60;99.90
3528;DHT22;1778;47.966;7.854;2023-03-31T05:48:13;11.60;99.90
3528;DHT22;1778;47.966;7.854;2023-03-31T05:49:14;11.60;99.90
3528;DHT22;1778;47.966;7.854;2023-03-31T05:50:17;11.60;99.90
3528;DHT22;1778;47.966;7.854;2023-03-31T05:51:18;11.70;99.90
3528;DHT22;1778;47.966;7.854;2023-03-31T05:52:20;11.70;99.90
3528;DHT22;1778;47.966;7.854;2023-03-31T05:53:21;11.60;99.90
3528;DHT22;1778;47.966;7.854;2023-03-31T05:54:24;11.60;99.90
3528;DHT22;1778;47.966;7.854;2023-03-31T05:55:25;11.60;99.90
3528;DHT22;1778;47.966;7.854;2023-03-31T05:56:27;11.60;99.90
3528;DHT22;1778;47.966;7.854;2023-03-31T05:57:28;11.50;99.90
3528;DHT22;1778;47.966;7.854;2023-03-31T05:58:32;11.60;99.90
3528;DHT22;1778;47.966;7.854;2023-03-31T05:59:34;11.50;99.90
3528;DHT22;1778;47.966;7.854;2023-03-31T06:00:36;11.50;99.90
3528;DHT22;1778;47.966;7.854;2023-03-31T06:01:38;11.40;99.90
3528;DHT22;1778;47.966;7.854;2023-03-31T06:02:40;11.40;99.90
3528;DHT22;1778;47.966;7.854;2023-03-31T06:03:42;11.30;99.90
3528;DHT22;1778;47.966;7.854;2023-03-31T06:04:44;11.30;99.90
3528;DHT22;1778;47.966;7.854;2023-03-31T06:05:47;11.20;99.90
3528;DHT22;1778;47.966;7.854;2023-03-31T06:06:49;11.20;99.90
3528;DHT22;1778;47.966;7.854;2023-03-31T06:07:51;11.20;99.90
3528;DHT22;1778;47.966;7.854;2023-03-31T06:08:53;11.10;99.90
3528;DHT22;1778;47.966;7.854;2023-03-31T06:09:54;11.00;99.90
3528;DHT22;1778;47.966;7.854;2023-03-31T06:10:56;10.90;99.90
3528;DHT22;1778;47.966;7.854;2023-03-31T06:11:59;10.80;99.90
3528;DHT22;1778;47.966;7.854;2023-03-31T06:13:01;10.60;99.90
3528;DHT22;1778;47.966;7.854;2023-03-31T06:14:03;10.30;99.90
3528;DHT22;1778;47.966;7.854;2023-03-31T06:15:05;10.30;99.90
3528;DHT22;1778;47.966;7.854;2023-03-31T06:16:10;10.10;99.90
3528;DHT22;1778;47.966;7.854;2023-03-31T06:17:12;10.10;99.90
3528;DHT22;1778;47.966;7.854;2023-03-31T06:18:14;10.10;99.90
3528;DHT22;1778;47.966;7.854;2023-03-31T06:19:16;10.00;99.90
3528;DHT22;1778;47.966;7.854;2023-03-31T06:20:17;10.00;99.90
3528;DHT22;1778;47.966;7.854;2023-03-31T06:21:29;9.90;99.90
3528;DHT22;1778;47.966;7.854;2023-03-31T06:22:31;9.90;99.90
3528;DHT22;1778;47.966;7.854;2023-03-31T06:23:33;9.90;99.90
3528;DHT22;1778;47.966;7.854;2023-03-31T06:24:35;9.90;99.90
3528;DHT22;1778;47.966;7.854;2023-03-31T06:25:39;9.90;99.90
3528;DHT22;1778;47.966;7.854;2023-03-31T06:26:51;9.90;99.90
3528;DHT22;1778;47.966;7.854;2023-03-31T06:27:54;9.90;99.90
3528;DHT22;1778;47.966;7.854;2023-03-31T06:28:56;9.90;99.90
3528;DHT22;1778;47.966;7.854;2023-03-31T06:29:57;9.90;99.90
3528;DHT22;1778;47.966;7.854;2023-03-31T06:31:02;9.90;99.90
3528;DHT22;1778;47.966;7.854;2023-03-31T06:32:04;9.90;99.90
3528;DHT22;1778;47.966;7.854;2023-03-31T06:33:07;9.90;99.90
3528;DHT22;1778;47.966;7.854;2023-03-31T06:34:09;10.00;99.90
3528;DHT22;1778;47.966;7.854;2023-03-31T06:35:11;10.00;99.90
3528;DHT22;1778;47.966;7.854;2023-03-31T06:36:15;10.00;99.90
3528;DHT22;1778;47.966;7.854;2023-03-31T06:37:17;10.00;99.90
3528;DHT22;1778;47.966;7.854;2023-03-31T06:38:18;10.10;99.90
3528;DHT22;1778;47.966;7.854;2023-03-31T06:39:20;10.10;99.90
3528;DHT22;1778;47.966;7.854;2023-03-31T06:40:22;10.10;99.90
3528;DHT22;1778;47.966;7.854;2023-03-31T06:41:24;10.10;99.90
3528;DHT22;1778;47.966;7.854;2023-03-31T06:42:26;10.10;99.90
3528;DHT22;1778;47.966;7.854;2023-03-31T06:43:29;10.10;99.90
3528;DHT22;1778;47.966;7.854;2023-03-31T06:44:31;10.20;99.90
3528;DHT22;1778;47.966;7.854;2023-03-31T06:45:32;10.20;99.90
3528;DHT22;1778;47.966;7.854;2023-03-31T06:46:33;10.20;99.90
3528;DHT22;1778;47.966;7.854;2023-03-31T06:47:35;10.30;99.90
3528;DHT22;1778;47.966;7.854;2023-03-31T06:48:41;10.30;99.90
3528;DHT22;1778;47.966;7.854;2023-03-31T06:49:43;10.30;99.90
3528;DHT22;1778;47.966;7.854;2023-03-31T06:50:44;10.20;99.90
3528;DHT22;1778;47.966;7.854;2023-03-31T06:51:46;10.30;99.90
3528;DHT22;1778;47.966;7.854;2023-03-31T06:52:48;10.20;99.90
3528;DHT22;1778;47.966;7.854;2023-03-31T06:53:53;10.20;99.90
3528;DHT22;1778;47.966;7.854;2023-03-31T06:54:54;10.20;99.90
3528;DHT22;1778;47.966;7.854;2023-03-31T06:55:57;10.20;99.90
3528;DHT22;1778;47.966;7.854;2023-03-31T06:56:59;10.20;99.90
3528;DHT22;1778;47.966;7.854;2023-03-31T06:58:01;10.10;99.90
3528;DHT22;1778;47.966;7.854;2023-03-31T06:59:02;10.10;99.90
3528;DHT22;1778;47.966;7.854;2023-03-31T07:00:04;10.10;99.90
3528;DHT22;1778;47.966;7.854;2023-03-31T07:01:07;10.10;99.90
3528;DHT22;1778;47.966;7.854;2023-03-31T07:02:11;10.00;99.90
3528;DHT22;1778;47.966;7.854;2023-03-31T07:03:13;10.00;99.90
3528;DHT22;1778;47.966;7.854;2023-03-31T07:04:17;10.00;99.90
3528;DHT22;1778;47.966;7.854;2023-03-31T07:05:19;10.00;99.90
3528;DHT22;1778;47.966;7.854;2023-03-31T07:06:26;10.00;99.90
3528;DHT22;1778;47.966;7.854;2023-03-31T07:07:31;10.00;99.90
3528;DHT22;1778;47.966;7.854;2023-03-31T07:08:33;10.00;99.90
3528;DHT22;1778;47.966;7.854;2023-03-31T07:09:34;10.10;99.90
3528;DHT22;1778;47.966;7.854;2023-03-31T07:10:36;10.10;99.90
3528;DHT22;1778;47.966;7.854;2023-03-31T07:11:37;10.10;99.90
3528;DHT22;1778;47.966;7.854;2023-03-31T07:12:40;10.10;99.90
3528;DHT22;1778;47.966;7.854;2023-03-31T07:13:41;10.20;99.90
3528;DHT22;1778;47.966;7.854;2023-03-31T07:14:42;10.20;99.90
3528;DHT22;1778;47.966;7.854;2023-03-31T07:15:46;10.20;99.90
3528;DHT22;1778;47.966;7.854;2023-03-31T07:16:49;10.30;99.90
3528;DHT22;1778;47.966;7.854;2023-03-31T07:17:51;10.30;99.90
3528;DHT22;1778;47.966;7.854;2023-03-31T07:19:02;10.40;99.90
3528;DHT22;1778;47.966;7.854;2023-03-31T07:20:04;10.40;99.90
3528;DHT22;1778;47.966;7.854;2023-03-31T07:21:11;10.40;99.90
3528;DHT22;1778;47.966;7.854;2023-03-31T07:22:13;10.40;99.90
3528;DHT22;1778;47.966;7.854;2023-03-31T07:23:15;10.50;99.90
3528;DHT22;1778;47.966;7.854;2023-03-31T07:24:17;10.50;99.90
3528;DHT22;1778;47.966;7.854;2023-03-31T07:25:18;10.60;99.90
3528;DHT22;1778;47.966;7.854;2023-03-31T07:26:20;10.60;99.90
3528;DHT22;1778;47.966;7.854;2023-03-31T07:27:22;10.60;99.90
3528;DHT22;1778;47.966;7.854;2023-03-31T07:28:30;10.60;99.90
3528;DHT22;1778;47.966;7.854;2023-03-31T07:29:32;10.70;99.90
3528;DHT22;1778;47.966;7.854;2023-03-31T07:30:33;10.70;99.90
3528;DHT22;1778;47.966;7.854;2023-03-31T07:31:35;10.70;99.90
3528;DHT22;1778;47.966;7.854;2023-03-31T07:32:36;10.70;99.90
3528;DHT22;1778;47.966;7.854;2023-03-31T07:33:41;10.70;99.90
3528;DHT22;1778;47.966;7.854;2023-03-31T07:34:42;10.80;99.90
3528;DHT22;1778;47.966;7.854;2023-03-31T07:35:44;10.80;99.90
3528;DHT22;1778;47.966;7.854;2023-03-31T07:36:54;10.80;99.90
3528;DHT22;1778;47.966;7.854;2023-03-31T07:37:56;10.80;99.90
3528;DHT22;1778;47.966;7.854;2023-03-31T07:38:58;10.90;99.90
3528;DHT22;1778;47.966;7.854;2023-03-31T07:39:59;10.90;99.90
3528;DHT22;1778;47.966;7.854;2023-03-31T07:41:01;11.00;99.90
3528;DHT22;1778;47.966;7.854;2023-03-31T07:42:10;11.00;99.90
3528;DHT22;1778;47.966;7.854;2023-03-31T07:43:12;11.00;99.90
3528;DHT22;1778;47.966;7.854;2023-03-31T07:44:13;11.10;99.90